Time;durP1;ratioP1;P1;durP2;ratioP2;P2;SDS_P1;SDS_P2;PMS_P1;PMS_P2;Temp;Humidity;BMP_temperature;BMP_pressure;BME280_temperature;BME280_humidity;BME280_pressure;Samples;Min_cycle;Max_cycle;Signal;HPM_P1;HPM_P2
2021/04/25 00:01:14;;;;;;;2.10;0.70;;;3.60;99.90;;;;;;5044669;28;20111;-77
2021/04/25 00:03:40;;;;;;;1.05;0.32;;;3.60;99.90;;;;;;5028661;28;20454;-77
2021/04/25 00:06:07;;;;;;;1.15;0.80;;;3.60;99.90;;;;;;5044515;28;20184;-77
2021/04/25 00:08:33;;;;;;;1.73;0.95;;;3.60;99.90;;;;;;5052088;28;20048;-77
2021/04/25 00:11:02;;;;;;;1.38;0.60;;;3.60;99.90;;;;;;5044747;28;20036;-77
2021/04/25 00:13:29;;;;;;;0.35;0.35;;;3.60;99.90;;;;;;5045316;28;20163;-77
2021/04/25 00:15:55;;;;;;;1.58;1.05;;;3.60;99.90;;;;;;5042487;28;20045;-78
2021/04/25 00:18:22;;;;;;;0.43;0.35;;;3.60;99.90;;;;;;5044721;28;20032;-78
2021/04/25 00:20:49;;;;;;;1.70;0.50;;;3.50;99.90;;;;;;5044089;28;20147;-78
2021/04/25 00:23:17;;;;;;;2.15;0.45;;;3.60;99.90;;;;;;5045231;28;20044;-78
2021/04/25 00:25:44;;;;;;;1.00;0.65;;;3.50;99.90;;;;;;5044052;28;20056;-78
2021/04/25 00:28:11;;;;;;;1.08;0.68;;;3.50;99.90;;;;;;5044152;28;20060;-78
2021/04/25 00:30:37;;;;;;;1.50;0.68;;;3.50;99.90;;;;;;5044581;28;20079;-78
2021/04/25 00:33:04;;;;;;;1.65;0.50;;;3.50;99.90;;;;;;5057852;28;20047;-78
2021/04/25 00:35:30;;;;;;;0.60;0.43;;;3.50;99.90;;;;;;5044654;28;20041;-78
2021/04/25 00:37:57;;;;;;;3.17;1.05;;;3.50;99.90;;;;;;5041506;28;20040;-78
2021/04/25 00:40:24;;;;;;;3.67;0.80;;;3.40;99.90;;;;;;5061389;28;20055;-78
2021/04/25 00:42:50;;;;;;;2.15;0.77;;;3.50;99.90;;;;;;5047124;28;20045;-78
2021/04/25 00:45:18;;;;;;;0.70;0.35;;;3.50;99.90;;;;;;5061588;28;20094;-78
2021/04/25 00:47:48;;;;;;;4.40;0.60;;;3.50;99.90;;;;;;5057239;28;20045;-78
2021/04/25 00:50:24;;;;;;;1.10;0.45;;;3.50;99.90;;;;;;5039763;28;20059;-78
2021/04/25 00:52:55;;;;;;;3.15;0.80;;;3.50;99.90;;;;;;5041265;28;20121;-77
2021/04/25 00:55:27;;;;;;;1.30;0.73;;;3.50;99.90;;;;;;5057595;28;20270;-77
2021/04/25 00:57:56;;;;;;;1.65;0.77;;;3.50;99.90;;;;;;5027478;28;20346;-78
2021/04/25 01:00:24;;;;;;;1.95;1.10;;;3.60;99.90;;;;;;5044478;28;20048;-78
2021/04/25 01:02:51;;;;;;;2.70;0.52;;;3.50;99.90;;;;;;5062743;28;20045;-78
2021/04/25 01:05:19;;;;;;;0.63;0.60;;;3.50;99.90;;;;;;5025585;28;20041;-78
2021/04/25 01:07:46;;;;;;;1.10;0.60;;;3.50;99.90;;;;;;5062105;28;20041;-78
2021/04/25 01:10:14;;;;;;;2.88;0.50;;;3.60;99.90;;;;;;5041409;28;20044;-78
2021/04/25 01:12:41;;;;;;;4.60;0.80;;;3.60;99.90;;;;;;5028875;28;20059;-77
2021/04/25 01:15:13;;;;;;;0.65;0.50;;;3.60;99.90;;;;;;5022347;28;20056;-78
2021/04/25 01:17:45;;;;;;;1.60;1.13;;;3.60;99.90;;;;;;5046003;28;20053;-77
2021/04/25 01:20:15;;;;;;;2.80;0.45;;;3.70;99.90;;;;;;5042498;28;20132;-77
2021/04/25 01:22:42;;;;;;;0.57;0.43;;;3.70;99.90;;;;;;5060718;28;20053;-78
2021/04/25 01:25:11;;;;;;;0.60;0.60;;;3.70;99.90;;;;;;5064469;28;20048;-79
2021/04/25 01:27:38;;;;;;;2.50;0.57;;;3.70;99.90;;;;;;5038595;28;20067;-77
2021/04/25 01:30:08;;;;;;;2.90;0.85;;;3.70;99.90;;;;;;5063431;28;20048;-77
2021/04/25 01:32:35;;;;;;;3.42;0.60;;;3.70;99.90;;;;;;5032576;28;20143;-77
2021/04/25 01:35:03;;;;;;;1.73;0.63;;;3.60;99.90;;;;;;5047402;28;20040;-77
2021/04/25 01:37:29;;;;;;;0.57;0.55;;;3.70;99.90;;;;;;5048772;28;20037;-77
2021/04/25 01:39:56;;;;;;;2.42;1.00;;;3.70;99.90;;;;;;5045238;28;20551;-77
2021/04/25 01:42:23;;;;;;;2.78;0.52;;;3.70;99.90;;;;;;5029582;28;20087;-77
2021/04/25 01:44:49;;;;;;;1.15;0.75;;;3.70;99.90;;;;;;5029488;28;20037;-77
2021/04/25 01:47:16;;;;;;;2.40;0.65;;;3.70;99.90;;;;;;5045380;28;20063;-77
2021/04/25 01:49:42;;;;;;;1.60;0.70;;;3.60;99.90;;;;;;5060237;28;20445;-77
2021/04/25 01:52:09;;;;;;;1.80;0.70;;;3.60;99.90;;;;;;5063746;28;20138;-77
2021/04/25 01:54:35;;;;;;;0.55;0.32;;;3.60;99.90;;;;;;5064270;28;20048;-77
2021/04/25 01:57:02;;;;;;;3.75;0.40;;;3.60;99.90;;;;;;5055786;28;20033;-77
2021/04/25 01:59:28;;;;;;;2.88;0.85;;;3.60;99.90;;;;;;5064768;28;20041;-78
2021/04/25 02:01:55;;;;;;;2.38;2.10;;;3.60;99.90;;;;;;5046917;28;20058;-78
2021/04/25 02:04:22;;;;;;;2.35;0.70;;;3.60;99.90;;;;;;5047884;28;20040;-78
2021/04/25 02:06:48;;;;;;;0.50;0.43;;;3.60;99.90;;;;;;5064649;28;20059;-78
2021/04/25 02:09:15;;;;;;;2.05;0.25;;;3.60;99.90;;;;;;5045095;28;20425;-78
2021/04/25 02:11:41;;;;;;;3.72;0.57;;;3.60;99.90;;;;;;5047284;28;20063;-78
2021/04/25 02:14:08;;;;;;;5.97;0.88;;;3.60;99.90;;;;;;5024699;28;20623;-78
2021/04/25 02:16:35;;;;;;;1.52;0.60;;;3.60;99.90;;;;;;5048264;28;20377;-78
2021/04/25 02:19:02;;;;;;;1.98;0.43;;;3.50;99.90;;;;;;5064837;28;20650;-78
2021/04/25 02:21:29;;;;;;;0.98;0.40;;;3.60;99.90;;;;;;5048959;28;20046;-78
2021/04/25 02:23:57;;;;;;;0.65;0.20;;;3.50;99.90;;;;;;5042726;28;20044;-78
2021/04/25 02:26:24;;;;;;;2.60;0.38;;;3.50;99.90;;;;;;5047649;28;20056;-78
2021/04/25 02:28:51;;;;;;;2.13;0.32;;;3.50;99.90;;;;;;5061426;28;20551;-78
2021/04/25 02:31:18;;;;;;;0.73;0.30;;;3.50;99.90;;;;;;5046552;28;20338;-78
2021/04/25 02:33:45;;;;;;;1.17;0.88;;;3.50;99.90;;;;;;5063798;28;20052;-77
2021/04/25 02:36:14;;;;;;;1.20;0.50;;;3.50;99.90;;;;;;5044509;28;20110;-77
2021/04/25 02:38:41;;;;;;;0.90;0.30;;;3.50;99.90;;;;;;5048059;28;20055;-78
2021/04/25 02:41:07;;;;;;;2.50;0.52;;;3.50;99.90;;;;;;5046619;28;20055;-78
2021/04/25 02:43:34;;;;;;;0.98;0.40;;;3.50;99.90;;;;;;5066074;28;20049;-82
2021/04/25 02:46:00;;;;;;;4.85;0.85;;;3.50;99.90;;;;;;5035734;28;20054;-82
2021/04/25 02:48:27;;;;;;;2.03;1.15;;;3.40;99.90;;;;;;5037519;28;20048;-82
2021/04/25 02:50:53;;;;;;;1.35;1.25;;;3.40;99.90;;;;;;5053069;28;20179;-81
2021/04/25 02:53:20;;;;;;;1.33;0.30;;;3.40;99.90;;;;;;5051229;28;20056;-81
2021/04/25 02:55:46;;;;;;;0.75;0.35;;;3.50;99.90;;;;;;5036424;28;20052;-82
2021/04/25 02:58:13;;;;;;;1.15;1.00;;;3.50;99.90;;;;;;5051333;28;20473;-82
2021/04/25 03:00:39;;;;;;;6.53;2.85;;;3.40;99.90;;;;;;5037192;28;20087;-82
2021/04/25 03:03:06;;;;;;;1.27;0.40;;;3.40;99.90;;;;;;5068827;28;20036;-81
2021/04/25 03:05:33;;;;;;;1.25;0.70;;;3.40;99.90;;;;;;5051467;28;20147;-81
2021/04/25 03:08:00;;;;;;;3.47;1.35;;;3.50;99.90;;;;;;5067000;28;20619;-81
2021/04/25 03:10:27;;;;;;;1.13;0.73;;;3.40;99.90;;;;;;5067256;28;20040;-82
2021/04/25 03:12:53;;;;;;;1.05;0.63;;;3.50;99.90;;;;;;5034885;28;20037;-82
2021/04/25 03:15:21;;;;;;;1.52;0.73;;;3.40;99.90;;;;;;5050647;28;20050;-82
2021/04/25 03:17:49;;;;;;;0.60;0.40;;;3.40;99.90;;;;;;5070799;28;20036;-81
2021/04/25 03:20:18;;;;;;;1.90;0.85;;;3.40;99.90;;;;;;5052223;28;20033;-81
2021/04/25 03:22:45;;;;;;;0.82;0.40;;;3.40;99.90;;;;;;5055811;28;20102;-82
2021/04/25 03:25:13;;;;;;;0.93;0.80;;;3.40;99.90;;;;;;5050177;28;20040;-80
2021/04/25 03:27:40;;;;;;;1.98;0.68;;;3.40;99.90;;;;;;5050296;28;20044;-82
2021/04/25 03:30:09;;;;;;;2.10;0.60;;;3.30;99.90;;;;;;5050434;28;20051;-82
2021/04/25 03:32:36;;;;;;;1.70;0.50;;;3.30;99.90;;;;;;5038024;28;20051;-82
2021/04/25 03:35:08;;;;;;;1.77;0.60;;;3.30;99.90;;;;;;5065266;28;20131;-82
2021/04/25 03:37:35;;;;;;;2.88;0.85;;;3.30;99.90;;;;;;5037331;28;20064;-82
2021/04/25 03:40:04;;;;;;;3.38;1.17;;;3.30;99.90;;;;;;5046668;28;20040;-81
2021/04/25 03:42:30;;;;;;;2.88;0.60;;;3.30;99.90;;;;;;5049731;28;20168;-82
2021/04/25 03:44:57;;;;;;;0.43;0.22;;;3.30;99.90;;;;;;5050898;28;20036;-82
2021/04/25 03:47:23;;;;;;;2.92;0.60;;;3.30;99.90;;;;;;5063494;28;20162;-82
2021/04/25 03:49:50;;;;;;;3.72;0.52;;;3.30;99.90;;;;;;5048136;28;20078;-81
2021/04/25 03:52:16;;;;;;;1.75;0.40;;;3.30;99.90;;;;;;5037838;28;20702;-81
2021/04/25 03:54:43;;;;;;;2.55;0.40;;;3.30;99.90;;;;;;5053624;28;20128;-82
2021/04/25 03:57:10;;;;;;;0.40;0.35;;;3.30;99.90;;;;;;5049419;28;20102;-81
2021/04/25 03:59:36;;;;;;;0.50;0.20;;;3.30;99.90;;;;;;5064524;28;20351;-81
2021/04/25 04:02:03;;;;;;;2.47;0.68;;;3.30;99.90;;;;;;5065627;28;20135;-82
2021/04/25 04:04:29;;;;;;;4.15;0.60;;;3.30;99.90;;;;;;5051036;28;20565;-81
2021/04/25 04:06:56;;;;;;;2.55;0.22;;;3.30;99.90;;;;;;5067336;28;20055;-82
2021/04/25 04:09:23;;;;;;;1.20;0.40;;;3.40;99.90;;;;;;5066370;28;20040;-81
2021/04/25 04:11:49;;;;;;;0.13;0.10;;;3.40;99.90;;;;;;5036667;28;20037;-81
2021/04/25 04:14:16;;;;;;;1.88;0.57;;;3.40;99.90;;;;;;5053201;28;20355;-82
2021/04/25 04:16:43;;;;;;;0.80;0.80;;;3.40;99.90;;;;;;5051889;28;20087;-82
2021/04/25 04:19:09;;;;;;;3.35;0.40;;;3.40;99.90;;;;;;5047790;28;20571;-80
2021/04/25 04:21:36;;;;;;;0.65;0.20;;;3.40;99.90;;;;;;5070568;28;20091;-81
2021/04/25 04:24:03;;;;;;;0.65;0.43;;;3.40;99.90;;;;;;5061081;28;20112;-82
2021/04/25 04:26:29;;;;;;;1.38;0.40;;;3.40;99.90;;;;;;5036269;28;20083;-81
2021/04/25 04:28:56;;;;;;;2.20;0.38;;;3.40;99.90;;;;;;5061401;28;20048;-81
2021/04/25 04:31:22;;;;;;;0.63;0.50;;;3.40;99.90;;;;;;5055253;28;20062;-82
2021/04/25 04:33:49;;;;;;;0.47;0.22;;;3.50;99.90;;;;;;5049455;28;20135;-81
2021/04/25 04:36:17;;;;;;;2.88;0.70;;;3.50;99.90;;;;;;5050175;28;20100;-81
2021/04/25 04:38:43;;;;;;;1.58;0.30;;;3.60;99.90;;;;;;5049953;28;20060;-81
2021/04/25 04:41:10;;;;;;;0.90;0.30;;;3.60;99.90;;;;;;5034302;28;20044;-81
2021/04/25 04:43:36;;;;;;;4.97;0.73;;;3.60;99.90;;;;;;5045595;28;20109;-81
2021/04/25 04:46:03;;;;;;;4.75;0.60;;;3.60;99.90;;;;;;5048143;28;20496;-82
2021/04/25 04:48:29;;;;;;;1.27;0.40;;;3.60;99.90;;;;;;5044358;28;20045;-81
2021/04/25 04:50:56;;;;;;;0.60;0.43;;;3.60;99.90;;;;;;5050685;28;20068;-81
2021/04/25 04:53:22;;;;;;;0.63;0.40;;;3.60;99.90;;;;;;5047111;28;20044;-82
2021/04/25 04:55:49;;;;;;;1.38;0.40;;;3.60;99.90;;;;;;5065852;28;20207;-81
2021/04/25 04:58:16;;;;;;;0.63;0.40;;;3.60;99.90;;;;;;5070255;28;20064;-81
2021/04/25 05:00:42;;;;;;;3.08;0.75;;;3.60;99.90;;;;;;5029523;28;20056;-81
2021/04/25 05:03:08;;;;;;;1.58;0.93;;;3.60;99.90;;;;;;5062541;28;20140;-82
2021/04/25 05:05:35;;;;;;;0.75;0.28;;;3.60;99.90;;;;;;5049134;28;20247;-82
2021/04/25 05:08:01;;;;;;;1.83;0.63;;;3.60;99.90;;;;;;5047473;28;20036;-82
2021/04/25 05:10:28;;;;;;;0.70;0.30;;;3.60;99.90;;;;;;5034225;28;20143;-82
2021/04/25 05:12:54;;;;;;;3.22;1.40;;;3.50;99.90;;;;;;5067661;28;20036;-82
2021/04/25 05:15:21;;;;;;;2.00;0.60;;;3.60;99.90;;;;;;5050370;28;20083;-81
2021/04/25 05:17:48;;;;;;;2.50;0.60;;;3.60;99.90;;;;;;5046612;28;20477;-82
2021/04/25 05:20:14;;;;;;;3.25;0.55;;;3.60;99.90;;;;;;5048352;28;20443;-81
2021/04/25 05:22:41;;;;;;;2.50;0.20;;;3.60;99.90;;;;;;5048404;28;20060;-82
2021/04/25 05:25:09;;;;;;;1.17;0.60;;;3.60;99.90;;;;;;5051637;28;20689;-81
2021/04/25 05:27:36;;;;;;;2.65;0.40;;;3.60;99.90;;;;;;5050721;28;20090;-82
2021/04/25 05:30:04;;;;;;;0.47;0.30;;;3.70;99.90;;;;;;5063754;28;20049;-82
2021/04/25 05:32:30;;;;;;;2.72;0.50;;;3.70;99.90;;;;;;5034359;28;20139;-81
2021/04/25 05:34:57;;;;;;;0.85;0.80;;;3.80;99.90;;;;;;5050125;28;20235;-83
2021/04/25 05:37:23;;;;;;;2.15;0.75;;;3.80;99.90;;;;;;5033639;28;20079;-81
2021/04/25 05:39:50;;;;;;;0.88;0.60;;;3.80;99.90;;;;;;5049908;28;20048;-82
2021/04/25 05:42:17;;;;;;;0.80;0.30;;;3.80;99.90;;;;;;5065648;28;20084;-82
2021/04/25 05:44:43;;;;;;;0.17;0.17;;;3.80;99.90;;;;;;5066997;28;20044;-82
2021/04/25 05:47:10;;;;;;;1.00;0.45;;;3.80;99.90;;;;;;5065689;28;20064;-82
2021/04/25 05:49:36;;;;;;;1.67;0.47;;;3.80;99.90;;;;;;5034095;28;20041;-83
2021/04/25 05:52:03;;;;;;;1.10;0.22;;;3.90;99.90;;;;;;5043259;28;20040;-83
2021/04/25 05:54:29;;;;;;;2.10;0.70;;;3.90;99.90;;;;;;5050830;28;20072;-82
2021/04/25 05:56:56;;;;;;;2.92;0.45;;;4.00;99.90;;;;;;5048563;28;20037;-82
2021/04/25 05:59:22;;;;;;;3.60;0.30;;;4.10;99.90;;;;;;5052738;28;20048;-82
2021/04/25 06:01:49;;;;;;;4.68;0.30;;;4.10;99.90;;;;;;5050427;28;20053;-82
2021/04/25 06:04:16;;;;;;;1.70;0.68;;;4.10;99.90;;;;;;5047821;28;20045;-82
2021/04/25 06:06:42;;;;;;;1.55;0.60;;;4.20;99.90;;;;;;5051695;28;20052;-84
2021/04/25 06:09:09;;;;;;;2.33;0.88;;;4.20;99.90;;;;;;5035503;28;20083;-82
2021/04/25 06:11:36;;;;;;;1.25;0.20;;;4.10;99.90;;;;;;5037162;28;20060;-82
2021/04/25 06:14:05;;;;;;;1.98;0.65;;;4.10;99.90;;;;;;5068540;28;20048;-82
2021/04/25 06:16:32;;;;;;;1.15;0.50;;;4.00;99.90;;;;;;5036089;28;20044;-82
2021/04/25 06:18:59;;;;;;;1.42;0.90;;;4.00;99.90;;;;;;5054919;28;20058;-82
2021/04/25 06:21:26;;;;;;;1.35;0.30;;;4.10;99.90;;;;;;5057651;28;20075;-82
2021/04/25 06:23:53;;;;;;;0.38;0.20;;;4.10;99.90;;;;;;5050521;28;20868;-82
2021/04/25 06:26:20;;;;;;;0.45;0.30;;;4.00;99.90;;;;;;5071053;28;20044;-82
2021/04/25 06:28:47;;;;;;;0.40;0.22;;;4.00;99.90;;;;;;5053625;28;20052;-81
2021/04/25 06:31:13;;;;;;;0.45;0.10;;;4.00;99.90;;;;;;5053526;28;20066;-81
2021/04/25 06:33:40;;;;;;;1.30;0.47;;;4.00;99.90;;;;;;5052444;28;20060;-81
2021/04/25 06:36:07;;;;;;;1.05;0.70;;;4.00;99.90;;;;;;5036319;28;21562;-82
2021/04/25 06:38:34;;;;;;;2.30;0.28;;;4.10;99.90;;;;;;5051599;28;20059;-81
2021/04/25 06:41:00;;;;;;;0.65;0.20;;;4.00;99.90;;;;;;5055131;28;20053;-80
2021/04/25 06:43:27;;;;;;;1.48;0.32;;;4.00;99.90;;;;;;5069195;28;20426;-82
2021/04/25 06:45:53;;;;;;;1.20;0.75;;;4.00;99.90;;;;;;5048659;28;20512;-82
2021/04/25 06:48:20;;;;;;;0.80;0.63;;;4.10;99.90;;;;;;5048761;28;20138;-82
2021/04/25 06:50:47;;;;;;;3.63;1.33;;;4.10;99.90;;;;;;5048258;28;20596;-81
2021/04/25 06:53:13;;;;;;;3.45;1.27;;;4.20;99.90;;;;;;5047072;28;20049;-81
2021/04/25 06:55:40;;;;;;;2.00;0.88;;;4.20;99.90;;;;;;5048011;28;20402;-81
2021/04/25 06:58:06;;;;;;;2.08;0.52;;;4.30;99.90;;;;;;5033536;28;20037;-81
2021/04/25 07:00:33;;;;;;;0.85;0.80;;;4.30;99.90;;;;;;5029874;28;20052;-81
2021/04/25 07:03:00;;;;;;;1.42;0.77;;;4.40;99.90;;;;;;5046928;28;20464;-81
2021/04/25 07:05:27;;;;;;;0.63;0.40;;;4.40;99.90;;;;;;5047033;28;20140;-81
2021/04/25 07:07:56;;;;;;;0.95;0.63;;;4.40;99.90;;;;;;5031744;28;20398;-81
2021/04/25 07:10:24;;;;;;;1.17;0.90;;;4.40;99.90;;;;;;5039982;28;20111;-81
2021/04/25 07:12:51;;;;;;;3.28;0.82;;;4.40;99.90;;;;;;5030821;28;20612;-81
2021/04/25 07:15:18;;;;;;;1.75;0.77;;;4.30;99.90;;;;;;5044583;28;20048;-82
2021/04/25 07:17:44;;;;;;;1.50;0.85;;;4.10;99.90;;;;;;5047541;28;20048;-80
2021/04/25 07:20:12;;;;;;;3.17;0.95;;;4.00;99.90;;;;;;5045571;28;20052;-81
2021/04/25 07:22:38;;;;;;;1.55;0.52;;;4.00;99.90;;;;;;5047508;28;20081;-80
2021/04/25 07:25:07;;;;;;;1.30;0.88;;;3.90;99.90;;;;;;5064655;28;20041;-82
2021/04/25 07:27:35;;;;;;;1.67;0.68;;;3.90;99.90;;;;;;5049584;28;20470;-81
2021/04/25 07:30:03;;;;;;;0.52;0.35;;;3.90;99.90;;;;;;5046462;28;20057;-81
2021/04/25 07:32:29;;;;;;;2.75;0.50;;;3.90;99.90;;;;;;5046361;28;20406;-81
2021/04/25 07:34:56;;;;;;;0.85;0.60;;;3.90;99.90;;;;;;5032084;28;20049;-81
2021/04/25 07:37:22;;;;;;;2.28;0.82;;;4.00;99.90;;;;;;5049187;28;20045;-82
2021/04/25 07:39:49;;;;;;;2.80;0.80;;;4.10;99.90;;;;;;5047780;28;20037;-82
2021/04/25 07:42:18;;;;;;;1.73;0.77;;;4.20;99.90;;;;;;5047523;28;20071;-82
2021/04/25 07:44:45;;;;;;;0.63;0.40;;;4.10;99.90;;;;;;5047094;28;20048;-81
2021/04/25 07:47:12;;;;;;;1.75;0.68;;;4.20;99.90;;;;;;5033024;28;20102;-81
2021/04/25 07:49:39;;;;;;;3.10;0.50;;;4.10;99.90;;;;;;5042965;28;20037;-82
2021/04/25 07:52:06;;;;;;;1.60;1.40;;;4.20;99.90;;;;;;5044151;28;20071;-82
2021/04/25 07:54:33;;;;;;;3.92;1.35;;;4.30;99.90;;;;;;5049247;28;20459;-82
2021/04/25 07:57:00;;;;;;;2.97;0.77;;;4.30;99.90;;;;;;5030565;28;20171;-82
2021/04/25 07:59:27;;;;;;;2.38;0.70;;;4.20;99.90;;;;;;5048940;28;20044;-81
2021/04/25 08:01:53;;;;;;;4.97;0.98;;;4.20;99.90;;;;;;5046462;28;20044;-81
2021/04/25 08:04:20;;;;;;;2.63;1.00;;;4.00;99.90;;;;;;5048313;28;20045;-82
2021/04/25 08:06:46;;;;;;;2.92;0.43;;;4.10;99.90;;;;;;5048772;28;20041;-81
2021/04/25 08:09:13;;;;;;;1.75;0.85;;;4.20;99.90;;;;;;5064733;28;20049;-81
2021/04/25 08:11:39;;;;;;;1.90;0.50;;;4.20;99.90;;;;;;5048047;28;20072;-81
2021/04/25 08:14:06;;;;;;;0.70;0.35;;;4.20;99.90;;;;;;5030114;28;20051;-82
2021/04/25 08:16:33;;;;;;;2.08;0.38;;;4.30;99.90;;;;;;5029216;28;20116;-81
2021/04/25 08:19:00;;;;;;;0.50;0.47;;;4.20;99.90;;;;;;5031564;28;20068;-81
2021/04/25 08:21:27;;;;;;;1.02;0.32;;;4.20;99.90;;;;;;5050007;28;20037;-81
2021/04/25 08:23:54;;;;;;;2.38;0.70;;;4.30;99.90;;;;;;5029751;28;20052;-82
2021/04/25 08:26:21;;;;;;;5.95;0.77;;;4.40;99.90;;;;;;5049182;28;20041;-82
2021/04/25 08:28:47;;;;;;;5.30;1.00;;;4.30;99.90;;;;;;5065131;28;20126;-83
2021/04/25 08:31:14;;;;;;;1.70;0.90;;;4.30;99.90;;;;;;5031548;28;20560;-81
2021/04/25 08:34:00;;;;;;;2.35;1.35;;;4.30;99.90;;;;;;5043123;28;20059;-83
2021/04/25 08:36:26;;;;;;;2.05;0.60;;;4.30;99.90;;;;;;5050574;28;20538;-82
2021/04/25 08:38:53;;;;;;;1.40;0.52;;;4.40;99.90;;;;;;5047826;28;20506;-82
2021/04/25 08:41:21;;;;;;;1.00;0.40;;;4.50;99.90;;;;;;5032025;28;20049;-81
2021/04/25 08:43:49;;;;;;;2.08;0.88;;;4.60;99.90;;;;;;5044220;28;20049;-82
2021/04/25 08:46:23;;;;;;;3.25;0.65;;;4.40;99.90;;;;;;5048035;28;20140;-82
2021/04/25 08:48:51;;;;;;;0.93;0.50;;;4.30;99.90;;;;;;5048300;28;20045;-82
2021/04/25 08:51:19;;;;;;;1.70;0.60;;;4.20;99.90;;;;;;5042862;28;20103;-81
2021/04/25 08:53:48;;;;;;;1.90;1.02;;;4.30;99.90;;;;;;5027908;28;20049;-82
2021/04/25 08:56:17;;;;;;;2.90;0.47;;;4.40;99.90;;;;;;5006879;28;20046;-82
2021/04/25 08:58:45;;;;;;;0.40;0.30;;;4.50;99.90;;;;;;5058394;28;20039;-82
2021/04/25 09:01:13;;;;;;;0.77;0.20;;;4.60;99.90;;;;;;5013130;28;20579;-82
2021/04/25 09:03:39;;;;;;;6.15;0.73;;;4.60;99.90;;;;;;5060770;28;20103;-82
2021/04/25 09:06:07;;;;;;;6.35;1.92;;;4.60;99.90;;;;;;5061361;28;20041;-81
2021/04/25 09:08:57;;;;;;;1.95;0.50;;;4.80;99.90;;;;;;5027596;28;20483;-81
2021/04/25 09:11:28;;;;;;;1.75;0.47;;;4.80;99.90;;;;;;5044071;28;20045;-82
2021/04/25 09:14:21;;;;;;;1.15;0.35;;;4.80;99.90;;;;;;5025561;28;20052;-82
2021/04/25 09:16:54;;;;;;;2.17;0.45;;;4.90;99.90;;;;;;5025666;28;20050;-83
2021/04/25 09:19:22;;;;;;;2.70;1.10;;;4.70;99.90;;;;;;5044034;28;20128;-82
2021/04/25 09:21:57;;;;;;;2.80;0.88;;;4.80;99.90;;;;;;5055130;28;20057;-80
2021/04/25 09:24:31;;;;;;;3.20;0.80;;;4.70;99.90;;;;;;5025064;28;20059;-81
2021/04/25 09:26:59;;;;;;;1.05;0.60;;;4.70;99.90;;;;;;5042315;28;20049;-81
2021/04/25 09:29:45;;;;;;;1.33;0.40;;;4.60;99.90;;;;;;5026106;28;20056;-82
2021/04/25 09:32:23;;;;;;;1.05;1.02;;;4.60;99.90;;;;;;5058322;28;20064;-81
2021/04/25 09:34:50;;;;;;;5.47;0.80;;;4.30;99.90;;;;;;5027164;28;20113;-81
2021/04/25 09:37:19;;;;;;;0.52;0.45;;;4.30;99.90;;;;;;5057840;28;20525;-81
2021/04/25 09:40:09;;;;;;;2.40;0.60;;;4.30;99.90;;;;;;5040193;28;20041;-80
2021/04/25 09:43:06;;;;;;;2.00;0.50;;;4.30;99.90;;;;;;5025015;28;20065;-81
2021/04/25 09:45:57;;;;;;;2.13;0.82;;;4.40;99.90;;;;;;5032670;28;20317;-82
2021/04/25 09:48:31;;;;;;;0.90;0.50;;;4.70;99.90;;;;;;5057574;28;20187;-81
2021/04/25 09:51:10;;;;;;;4.70;0.60;;;4.70;99.90;;;;;;5044711;28;20134;-82
2021/04/25 09:53:42;;;;;;;1.48;0.30;;;4.60;99.90;;;;;;5032183;28;20053;-82
2021/04/25 09:56:09;;;;;;;2.35;0.40;;;4.70;99.90;;;;;;5031165;28;20045;-83
2021/04/25 09:58:58;;;;;;;0.88;0.50;;;4.70;99.90;;;;;;5030453;28;20056;-81
2021/04/25 10:01:28;;;;;;;0.73;0.45;;;4.80;99.90;;;;;;5014814;28;20077;-80
2021/04/25 10:03:56;;;;;;;;;;;4.80;99.90;;;;;;5025837;28;20107;-80
2021/04/25 10:06:23;;;;;;;1.35;0.57;;;4.70;99.90;;;;;;5031636;28;19925;-81
2021/04/25 10:08:50;;;;;;;4.07;0.40;;;4.70;99.90;;;;;;5028936;28;20378;-82
2021/04/25 10:11:21;;;;;;;1.00;0.35;;;4.80;99.90;;;;;;5029180;28;20041;-81
2021/04/25 10:13:48;;;;;;;3.00;0.50;;;4.90;99.90;;;;;;5029819;28;20418;-81
2021/04/25 10:16:16;;;;;;;1.20;0.57;;;4.80;99.90;;;;;;5026633;28;20399;-80
2021/04/25 10:18:43;;;;;;;0.65;0.30;;;4.60;99.90;;;;;;5026727;28;20490;-80
2021/04/25 10:21:10;;;;;;;0.70;0.30;;;4.90;99.90;;;;;;5008393;28;20041;-80
2021/04/25 10:23:37;;;;;;;0.60;0.32;;;4.90;99.90;;;;;;5030322;28;20073;-80
2021/04/25 10:26:17;;;;;;;4.15;0.82;;;5.10;99.90;;;;;;5041016;28;20148;-80
2021/04/25 10:28:52;;;;;;;0.47;0.32;;;4.90;99.90;;;;;;5044766;28;20077;-81
2021/04/25 10:31:26;;;;;;;0.95;0.40;;;4.90;99.90;;;;;;5026739;28;20045;-79
2021/04/25 10:34:03;;;;;;;0.77;0.40;;;5.00;99.90;;;;;;5027008;28;20098;-80
2021/04/25 10:36:46;;;;;;;0.98;0.50;;;4.90;99.90;;;;;;5029856;28;20084;-81
2021/04/25 10:39:37;;;;;;;3.13;0.80;;;4.90;99.90;;;;;;5012927;28;20057;-79
2021/04/25 10:42:29;;;;;;;0.70;0.50;;;5.10;99.90;;;;;;5031808;28;20063;-80
2021/04/25 10:45:16;;;;;;;1.70;0.47;;;5.10;99.90;;;;;;5016871;28;20140;-80
2021/04/25 10:47:45;;;;;;;2.20;0.52;;;5.00;99.90;;;;;;5026390;28;20111;-80
2021/04/25 10:50:14;;;;;;;0.65;0.52;;;5.00;99.90;;;;;;5032453;28;20204;-79
2021/04/25 10:52:44;;;;;;;2.00;0.50;;;4.90;99.90;;;;;;5050224;28;20389;-80
2021/04/25 10:55:14;;;;;;;0.95;0.95;;;4.90;99.90;;;;;;5033550;28;20056;-79
2021/04/25 10:58:07;;;;;;;0.85;0.45;;;4.90;99.90;;;;;;5033023;28;20831;-80
2021/04/25 11:00:34;;;;;;;4.82;1.25;;;5.00;99.90;;;;;;5045710;28;20120;-81
2021/04/25 11:03:03;;;;;;;1.77;0.32;;;5.20;99.90;;;;;;5047012;28;20040;-80
2021/04/25 11:05:38;;;;;;;0.90;0.80;;;5.10;99.90;;;;;;5070406;28;20167;-80
2021/04/25 11:08:12;;;;;;;1.02;0.47;;;5.40;99.90;;;;;;5068681;28;20316;-80
2021/04/25 11:11:01;;;;;;;1.33;0.75;;;5.60;99.90;;;;;;5052519;28;20075;-80
2021/04/25 11:13:47;;;;;;;1.27;0.52;;;5.40;99.90;;;;;;5048041;28;20531;-81
2021/04/25 11:16:13;;;;;;;0.35;0.32;;;5.30;99.90;;;;;;5064710;28;20044;-80
2021/04/25 11:18:53;;;;;;;0.75;0.35;;;5.10;99.90;;;;;;5054525;28;20482;-82
2021/04/25 11:24:02;;;;;;;0.63;0.30;;;5.20;99.90;;;;;;5051307;28;20048;-81
2021/04/25 11:26:38;;;;;;;0.52;0.40;;;5.10;99.90;;;;;;5053753;28;20029;-81
2021/04/25 11:29:13;;;;;;;1.38;0.50;;;5.20;99.90;;;;;;5053194;28;20054;-80
2021/04/25 11:31:52;;;;;;;1.30;0.45;;;5.40;99.90;;;;;;5063448;28;20136;-81
2021/04/25 11:34:25;;;;;;;0.98;0.68;;;5.60;99.90;;;;;;5050612;28;20041;-80
2021/04/25 11:37:22;;;;;;;0.50;0.30;;;5.40;99.90;;;;;;5051519;28;20207;-82
2021/04/25 11:39:54;;;;;;;3.05;0.65;;;5.50;99.90;;;;;;5025541;28;20329;-81
2021/04/25 11:42:27;;;;;;;0.82;0.45;;;5.30;99.90;;;;;;5032570;28;20070;-81
2021/04/25 11:44:54;;;;;;;1.55;0.75;;;5.30;99.90;;;;;;5047588;28;20070;-81
2021/04/25 11:47:21;;;;;;;0.52;0.32;;;5.10;99.90;;;;;;5054208;28;20044;-81
2021/04/25 11:49:52;;;;;;;2.28;0.47;;;5.10;99.90;;;;;;5048617;28;20052;-80
2021/04/25 11:52:21;;;;;;;0.20;0.20;;;5.10;99.90;;;;;;5070529;28;20079;-82
2021/04/25 11:55:05;;;;;;;0.70;0.57;;;5.20;99.90;;;;;;5030926;28;20049;-82
2021/04/25 11:57:35;;;;;;;0.93;0.50;;;5.20;99.90;;;;;;5031776;28;22381;-80
2021/04/25 12:00:04;;;;;;;1.08;0.60;;;5.10;99.90;;;;;;5047718;28;20044;-80
2021/04/25 12:02:42;;;;;;;0.82;0.77;;;4.90;99.90;;;;;;5043115;28;20066;-80
2021/04/25 12:05:14;;;;;;;0.55;0.50;;;4.80;99.90;;;;;;5048517;28;20049;-79
2021/04/25 12:07:43;;;;;;;3.38;0.75;;;5.00;99.90;;;;;;5029749;28;20045;-80
2021/04/25 12:10:26;;;;;;;2.08;0.73;;;5.10;99.90;;;;;;5049785;28;20041;-81
2021/04/25 12:13:00;;;;;;;1.65;0.60;;;5.20;99.90;;;;;;5044937;28;20044;-81
2021/04/25 12:15:52;;;;;;;1.25;0.70;;;5.10;99.90;;;;;;5042744;28;20037;-81
2021/04/25 12:18:28;;;;;;;5.80;0.63;;;5.20;99.90;;;;;;5029642;28;20041;-81
2021/04/25 12:21:03;;;;;;;0.90;0.82;;;5.30;99.90;;;;;;5049162;28;20573;-80
2021/04/25 12:23:35;;;;;;;2.55;0.75;;;5.30;99.90;;;;;;5063186;28;20041;-79
2021/04/25 12:26:09;;;;;;;1.50;0.73;;;5.10;99.90;;;;;;5069632;28;20083;-80
2021/04/25 12:28:47;;;;;;;1.50;0.75;;;4.80;99.90;;;;;;5048812;28;20041;-81
2021/04/25 12:31:18;;;;;;;3.03;0.65;;;4.60;99.90;;;;;;5046440;28;20041;-80
2021/04/25 12:33:51;;;;;;;2.95;0.95;;;4.60;99.90;;;;;;5037319;28;20044;-80
2021/04/25 12:36:19;;;;;;;1.02;0.65;;;4.70;99.90;;;;;;5066969;28;20143;-80
2021/04/25 12:39:07;;;;;;;0.47;0.45;;;4.70;99.90;;;;;;5036104;28;20119;-80
2021/04/25 12:41:41;;;;;;;0.75;0.70;;;4.90;99.90;;;;;;5066064;28;20473;-81
2021/04/25 12:44:09;;;;;;;0.90;0.70;;;5.00;99.90;;;;;;5067756;28;20126;-81
2021/04/25 12:46:36;;;;;;;2.03;0.30;;;5.10;99.90;;;;;;5047541;28;20048;-81
2021/04/25 12:49:05;;;;;;;1.38;0.50;;;5.10;99.90;;;;;;5052114;28;20512;-81
2021/04/25 12:51:44;;;;;;;1.38;0.45;;;5.20;99.90;;;;;;5031373;28;20056;-81
2021/04/25 12:54:17;;;;;;;2.95;0.30;;;5.10;99.90;;;;;;5064873;28;20052;-80
2021/04/25 12:56:56;;;;;;;2.33;0.60;;;5.20;99.90;;;;;;5071316;28;20063;-80
2021/04/25 12:59:25;;;;;;;0.75;0.55;;;5.00;99.90;;;;;;5063813;28;20049;-81
2021/04/25 13:01:55;;;;;;;2.65;0.75;;;4.70;99.90;;;;;;5062514;28;20075;-80
2021/04/25 13:04:40;;;;;;;1.67;0.73;;;4.70;99.90;;;;;;5067049;28;20040;-80
2021/04/25 13:07:40;;;;;;;1.25;0.60;;;4.70;99.90;;;;;;5066700;28;20054;-81
2021/04/25 13:10:14;;;;;;;0.75;0.52;;;4.70;99.90;;;;;;5047141;28;20041;-80
2021/04/25 13:12:44;;;;;;;2.08;0.60;;;4.70;99.90;;;;;;5049844;28;20100;-81